createdAt,value
2023-03-21T00:00:36.434Z,40.83
2023-03-21T00:01:38.816Z,39.68
2023-03-21T00:02:41.426Z,40.83
2023-03-21T00:03:44.118Z,39.93
2023-03-21T00:04:52.418Z,41.62
2023-03-21T00:05:56.135Z,40.58
2023-03-21T00:06:58.592Z,42.07
2023-03-21T00:08:02.627Z,41.27
2023-03-21T00:09:05.198Z,42.12
2023-03-21T00:10:15.494Z,40.58
2023-03-21T00:11:19.150Z,41.05
2023-03-21T00:12:21.468Z,40.60
2023-03-21T00:13:23.983Z,39.98
2023-03-21T00:14:30.784Z,42.35
2023-03-21T00:15:42.525Z,40.25
2023-03-21T00:16:51.535Z,39.75
2023-03-21T00:18:03.413Z,39.83
2023-03-21T00:19:06.538Z,40.05
2023-03-21T00:20:15.389Z,38.23
2023-03-21T00:21:40.640Z,37.20
2023-03-21T00:22:42.887Z,37.15
2023-03-21T00:23:46.529Z,36.93
2023-03-21T00:24:48.955Z,37.37
2023-03-21T00:25:51.321Z,36.23
2023-03-21T00:26:53.906Z,35.27
2023-03-21T00:28:07.528Z,33.23
2023-03-21T00:29:10.966Z,31.50
2023-03-21T00:30:13.676Z,32.25
2023-03-21T00:31:16.241Z,34.32
2023-03-21T00:32:21.026Z,31.53
2023-03-21T00:33:23.416Z,32.83
2023-03-21T00:34:36.671Z,29.28
2023-03-21T00:36:02.273Z,31.23
2023-03-21T00:37:09.491Z,31.57
2023-03-21T00:38:12.158Z,33.98
2023-03-21T00:39:15.482Z,31.48
2023-03-21T00:40:27.948Z,31.30
2023-03-21T00:41:42.653Z,33.35
2023-03-21T00:42:45.890Z,32.90
2023-03-21T00:43:48.327Z,35.35
2023-03-21T00:44:50.737Z,36.53
2023-03-21T00:45:53.047Z,33.68
2023-03-21T00:47:06.602Z,34.55
2023-03-21T00:48:10.389Z,32.02
2023-03-21T00:49:12.821Z,30.95
2023-03-21T00:50:15.635Z,30.43
2023-03-21T00:51:26.020Z,30.30
2023-03-21T00:52:40.173Z,27.65
2023-03-21T00:53:43.095Z,28.72
2023-03-21T00:54:45.753Z,28.48
2023-03-21T00:55:48.932Z,29.65
2023-03-21T00:56:51.345Z,28.57
2023-03-21T00:58:01.681Z,29.13
2023-03-21T00:59:04.495Z,27.25
2023-03-21T01:00:10.699Z,26.70
2023-03-21T01:01:13.352Z,29.75
2023-03-21T01:02:23.314Z,27.73
2023-03-21T01:03:26.741Z,29.02
2023-03-21T01:04:29.169Z,27.95
2023-03-21T01:05:53.525Z,26.78
2023-03-21T01:06:55.986Z,28.15
2023-03-21T01:07:58.366Z,28.00
2023-03-21T01:09:01.036Z,26.97
2023-03-21T01:10:04.226Z,28.32
2023-03-21T01:11:15.709Z,28.13
2023-03-21T01:12:18.052Z,26.28
2023-03-21T01:13:23.556Z,27.13
2023-03-21T01:14:26.101Z,27.43
2023-03-21T01:15:28.441Z,27.00
2023-03-21T01:16:33.470Z,26.27
2023-03-21T01:17:35.858Z,26.27
2023-03-21T01:18:38.989Z,26.88
2023-03-21T01:19:51.656Z,26.93
2023-03-21T01:20:57.476Z,25.42
2023-03-21T01:21:59.824Z,26.77
2023-03-21T01:23:02.486Z,26.13
2023-03-21T01:24:05.449Z,26.47
2023-03-21T01:25:21.907Z,26.10
2023-03-21T01:26:24.918Z,26.22
2023-03-21T01:27:27.312Z,25.90
2023-03-21T01:28:30.137Z,26.42
2023-03-21T01:29:32.463Z,26.48
2023-03-21T01:30:41.733Z,25.13
2023-03-21T01:31:44.580Z,25.22
2023-03-21T01:32:47.459Z,25.42
2023-03-21T01:33:49.906Z,25.67
2023-03-21T01:34:52.224Z,25.12
2023-03-21T01:36:10.029Z,24.87
2023-03-21T01:37:14.941Z,26.35
2023-03-21T01:38:17.311Z,25.80
2023-03-21T01:39:19.740Z,26.57
2023-03-21T01:40:25.252Z,25.67
2023-03-21T01:41:41.928Z,25.20
2023-03-21T01:42:45.687Z,25.25
2023-03-21T01:43:48.085Z,25.97
2023-03-21T01:45:04.054Z,25.88
2023-03-21T01:46:47.869Z,25.12
2023-03-21T01:47:56.701Z,24.78
2023-03-21T01:49:09.159Z,24.83
2023-03-21T01:50:11.573Z,24.67
2023-03-21T01:51:13.916Z,24.37
2023-03-21T01:52:35.771Z,23.98
2023-03-21T01:53:41.028Z,24.42
2023-03-21T01:54:44.742Z,24.48
2023-03-21T01:55:48.208Z,24.63
2023-03-21T01:56:54.269Z,24.57
2023-03-21T01:58:05.453Z,23.50
2023-03-21T01:59:14.449Z,24.55
2023-03-21T02:00:17.757Z,23.98
2023-03-21T02:01:22.986Z,24.27
2023-03-21T02:02:28.556Z,24.38
2023-03-21T02:03:50.074Z,24.45
2023-03-21T02:04:56.114Z,25.52
2023-03-21T02:06:06.708Z,24.32
2023-03-21T02:07:19.686Z,23.90
2023-03-21T02:08:30.550Z,24.83
2023-03-21T02:09:45.658Z,23.10
2023-03-21T02:10:50.601Z,24.97
2023-03-21T02:11:54.913Z,24.83
2023-03-21T02:13:08.177Z,24.28
2023-03-21T02:14:17.747Z,24.65
2023-03-21T02:15:27.275Z,23.87
2023-03-21T02:17:01.758Z,24.48
2023-03-21T02:18:24.205Z,24.72
2023-03-21T02:19:47.632Z,25.70
2023-03-21T02:21:42.306Z,26.17
2023-03-21T02:23:22.828Z,26.20
2023-03-21T02:24:37.265Z,25.62
2023-03-21T02:26:16.908Z,25.47
2023-03-21T02:27:23.953Z,24.87
2023-03-21T02:28:32.073Z,24.17
2023-03-21T02:29:56.398Z,23.08
2023-03-21T02:31:28.447Z,24.05
2023-03-21T02:32:57.168Z,23.65
2023-03-21T02:34:23.549Z,22.92
2023-03-21T02:35:50.405Z,24.60
2023-03-21T02:36:59.293Z,23.57
2023-03-21T02:38:07.713Z,23.20
2023-03-21T02:39:17.991Z,23.42
2023-03-21T02:40:36.986Z,24.20
2023-03-21T02:42:22.447Z,23.72
2023-03-21T02:43:39.959Z,23.82
2023-03-21T02:45:01.848Z,22.95
2023-03-21T02:46:40.179Z,23.87
2023-03-21T02:47:53.538Z,24.55
2023-03-21T02:49:04.667Z,24.28
2023-03-21T02:50:23.799Z,23.35
2023-03-21T02:51:29.200Z,23.18
2023-03-21T02:52:39.483Z,23.72
2023-03-21T02:53:51.696Z,23.37
2023-03-21T02:55:01.107Z,23.12
2023-03-21T02:56:05.094Z,23.78
2023-03-21T02:57:08.020Z,22.97
2023-03-21T02:58:14.118Z,23.90
2023-03-21T02:59:18.508Z,23.55
2023-03-21T03:00:24.663Z,22.77
2023-03-21T03:01:29.026Z,22.78
2023-03-21T03:02:31.835Z,22.95
2023-03-21T03:03:36.057Z,23.92
2023-03-21T03:04:38.482Z,23.75
2023-03-21T03:05:46.099Z,23.03
2023-03-21T03:07:06.966Z,22.52
2023-03-21T03:08:41.219Z,22.58
2023-03-21T03:10:20.593Z,22.10
2023-03-21T03:11:24.768Z,22.18
2023-03-21T03:12:53.130Z,22.45
2023-03-21T03:14:44.268Z,21.95
2023-03-21T03:16:16.426Z,22.15
2023-03-21T03:17:49.744Z,22.23
2023-03-21T03:18:57.231Z,21.68
2023-03-21T03:20:16.379Z,22.07
2023-03-21T03:21:38.188Z,21.50
2023-03-21T03:23:06.148Z,21.07
2023-03-21T03:24:28.777Z,21.63
2023-03-21T03:25:49.818Z,21.15
2023-03-21T03:26:57.658Z,21.50
2023-03-21T03:28:01.717Z,21.73
2023-03-21T03:29:10.312Z,21.07
2023-03-21T03:30:13.970Z,21.95
2023-03-21T03:31:26.076Z,22.50
2023-03-21T03:32:36.756Z,22.15
2023-03-21T03:33:43.403Z,21.35
2023-03-21T03:34:51.195Z,21.92
2023-03-21T03:36:05.119Z,21.33
2023-03-21T03:37:13.044Z,22.13
2023-03-21T03:38:17.434Z,22.68
2023-03-21T03:39:19.761Z,22.07
2023-03-21T03:40:38.361Z,21.35
2023-03-21T03:42:07.955Z,22.23
2023-03-21T03:43:21.084Z,21.38
2023-03-21T03:44:23.519Z,22.13
2023-03-21T03:45:30.535Z,21.52
2023-03-21T03:46:42.211Z,21.32
2023-03-21T03:48:15.748Z,21.33
2023-03-21T03:49:22.499Z,20.25
2023-03-21T03:50:36.975Z,20.43
2023-03-21T03:52:05.443Z,21.32
2023-03-21T03:53:18.653Z,20.50
2023-03-21T03:54:26.912Z,20.65
2023-03-21T03:55:34.555Z,20.35
2023-03-21T03:56:37.615Z,20.68
2023-03-21T03:57:40.311Z,20.20
2023-03-21T03:58:45.726Z,21.12
2023-03-21T03:59:49.002Z,20.58
2023-03-21T04:00:52.369Z,20.33
2023-03-21T04:01:54.780Z,20.90
2023-03-21T04:02:59.284Z,21.12
2023-03-21T04:04:12.645Z,20.02
2023-03-21T04:05:21.350Z,19.70
2023-03-21T04:06:24.512Z,21.10
2023-03-21T04:07:27.879Z,21.05
2023-03-21T04:08:30.749Z,19.78
2023-03-21T04:09:43.653Z,20.42
2023-03-21T04:10:47.138Z,20.33
2023-03-21T04:11:49.826Z,20.75
2023-03-21T04:12:52.396Z,20.15
2023-03-21T04:13:54.753Z,20.67
2023-03-21T04:15:04.774Z,20.68
2023-03-21T04:16:13.050Z,20.05
2023-03-21T04:17:16.216Z,20.15
2023-03-21T04:18:18.749Z,21.05
2023-03-21T04:19:21.243Z,20.73
2023-03-21T04:20:35.519Z,20.05
2023-03-21T04:21:39.225Z,19.95
2023-03-21T04:22:42.007Z,20.22
2023-03-21T04:23:44.397Z,20.98
2023-03-21T04:24:47.148Z,19.25
2023-03-21T04:25:56.581Z,19.43
2023-03-21T04:27:02.141Z,19.53
2023-03-21T04:28:04.685Z,19.38
2023-03-21T04:29:07.348Z,19.27
2023-03-21T04:30:12.196Z,18.23
2023-03-21T04:31:24.965Z,18.58
2023-03-21T04:32:27.812Z,18.97
2023-03-21T04:33:30.194Z,19.03
2023-03-21T04:34:32.573Z,19.35
2023-03-21T04:35:37.685Z,18.50
2023-03-21T04:36:46.694Z,18.08
2023-03-21T04:37:49.715Z,17.70
2023-03-21T04:38:52.568Z,18.55
2023-03-21T04:39:54.947Z,18.88
2023-03-21T04:40:57.911Z,18.38
2023-03-21T04:42:00.288Z,18.52
2023-03-21T04:43:02.626Z,17.62
2023-03-21T04:44:05.002Z,17.72
2023-03-21T04:45:07.966Z,17.70
2023-03-21T04:46:10.839Z,17.50
2023-03-21T04:47:15.990Z,18.33
2023-03-21T04:48:19.706Z,19.72
2023-03-21T04:49:22.567Z,18.80
2023-03-21T04:50:25.085Z,20.50
2023-03-21T04:51:27.514Z,23.23
2023-03-21T04:52:29.949Z,23.58
2023-03-21T04:53:32.659Z,23.32
2023-03-21T04:54:35.504Z,22.43
2023-03-21T04:55:38.260Z,21.70
2023-03-21T04:56:41.088Z,21.15
2023-03-21T04:57:43.470Z,21.45
2023-03-21T04:58:45.886Z,19.80
2023-03-21T04:59:48.239Z,20.42
2023-03-21T05:00:53.067Z,21.38
2023-03-21T05:01:56.956Z,20.72
2023-03-21T05:03:00.175Z,19.80
2023-03-21T05:04:04.039Z,18.27
2023-03-21T05:05:11.109Z,19.10
2023-03-21T05:06:13.470Z,21.65
2023-03-21T05:07:15.819Z,22.17
2023-03-21T05:08:18.192Z,19.58
2023-03-21T05:09:22.337Z,17.90
2023-03-21T05:10:24.677Z,18.77
2023-03-21T05:11:33.055Z,18.18
2023-03-21T05:12:35.450Z,19.05
2023-03-21T05:13:37.796Z,19.70
2023-03-21T05:14:40.117Z,18.32
2023-03-21T05:15:42.461Z,18.83
2023-03-21T05:16:48.640Z,18.72
2023-03-21T05:17:51.200Z,19.52
2023-03-21T05:18:55.516Z,19.28
2023-03-21T05:19:57.961Z,19.95
2023-03-21T05:21:00.767Z,18.95
2023-03-21T05:22:08.911Z,19.53
2023-03-21T05:23:11.809Z,21.38
2023-03-21T05:24:20.110Z,20.45
2023-03-21T05:25:34.143Z,19.23
2023-03-21T05:26:36.506Z,19.68
2023-03-21T05:27:45.177Z,19.87
2023-03-21T05:28:48.150Z,20.23
2023-03-21T05:29:50.537Z,19.52
2023-03-21T05:30:53.059Z,21.43
2023-03-21T05:31:55.702Z,21.43
2023-03-21T05:32:58.098Z,19.15
2023-03-21T05:34:00.758Z,34.63
2023-03-21T05:35:03.571Z,51.13
2023-03-21T05:36:06.497Z,35.03
2023-03-21T05:37:08.867Z,20.55
2023-03-21T05:38:11.342Z,19.32
2023-03-21T05:39:13.660Z,19.62
2023-03-21T05:40:16.078Z,20.58
2023-03-21T05:41:19.321Z,21.03
2023-03-21T05:42:21.960Z,21.35
2023-03-21T05:43:24.277Z,20.02
2023-03-21T05:44:26.603Z,20.63
2023-03-21T05:45:29.001Z,20.65
2023-03-21T05:46:31.427Z,21.48
2023-03-21T05:47:33.960Z,21.95
2023-03-21T05:48:36.492Z,22.90
2023-03-21T05:49:38.873Z,22.95
2023-03-21T05:50:41.517Z,22.67
2023-03-21T05:51:45.672Z,22.15
2023-03-21T05:52:48.084Z,21.73
2023-03-21T05:53:50.507Z,22.50
2023-03-21T05:54:52.962Z,21.02
2023-03-21T05:55:55.359Z,20.25
2023-03-21T05:56:57.732Z,20.18
2023-03-21T05:58:21.210Z,20.00
2023-03-21T05:59:23.587Z,19.32
2023-03-21T06:00:26.235Z,19.40
2023-03-21T06:01:28.599Z,19.22
2023-03-21T06:02:31.389Z,18.67
2023-03-21T06:03:54.630Z,17.75
2023-03-21T06:04:57.460Z,18.47
2023-03-21T06:05:59.869Z,18.60
2023-03-21T06:07:02.192Z,18.73
2023-03-21T06:08:05.136Z,18.35
2023-03-21T06:09:07.540Z,18.50
2023-03-21T06:10:11.050Z,18.03
2023-03-21T06:11:24.267Z,17.67
2023-03-21T06:12:26.755Z,17.40
2023-03-21T06:13:29.306Z,17.32
2023-03-21T06:14:32.075Z,17.70
2023-03-21T06:15:34.470Z,16.88
2023-03-21T06:16:36.839Z,17.43
2023-03-21T06:17:39.233Z,17.28
2023-03-21T06:18:41.625Z,16.38
2023-03-21T06:19:44.088Z,16.85
2023-03-21T06:20:46.418Z,16.80
2023-03-21T06:21:49.611Z,16.25
2023-03-21T06:22:52.030Z,16.43
2023-03-21T06:23:54.435Z,16.38
2023-03-21T06:24:56.902Z,16.00
2023-03-21T06:25:59.262Z,15.33
2023-03-21T06:27:03.513Z,15.37
2023-03-21T06:28:06.462Z,15.65
2023-03-21T06:29:09.284Z,15.03
2023-03-21T06:30:14.299Z,15.55
2023-03-21T06:31:16.998Z,16.32
2023-03-21T06:32:20.021Z,15.67
2023-03-21T06:33:22.407Z,14.78
2023-03-21T06:34:24.815Z,15.38
2023-03-21T06:35:27.216Z,14.82
2023-03-21T06:36:29.873Z,14.53
2023-03-21T06:37:32.409Z,14.50
2023-03-21T06:38:38.025Z,14.68
2023-03-21T06:39:40.626Z,13.22
2023-03-21T06:40:42.987Z,14.63
2023-03-21T06:41:45.390Z,14.77
2023-03-21T06:42:48.036Z,15.63
2023-03-21T06:43:50.420Z,16.30
2023-03-21T06:44:52.809Z,15.78
2023-03-21T06:45:55.410Z,14.20
2023-03-21T06:46:57.978Z,14.85
2023-03-21T06:48:03.579Z,14.93
2023-03-21T06:49:09.273Z,15.88
2023-03-21T06:50:12.167Z,15.08
2023-03-21T06:51:15.886Z,14.90
2023-03-21T06:52:20.714Z,15.08
2023-03-21T06:53:27.384Z,14.13
2023-03-21T06:54:35.964Z,15.00
2023-03-21T06:55:38.766Z,19.22
2023-03-21T06:56:41.946Z,27.35
2023-03-21T06:57:44.444Z,24.53
2023-03-21T06:58:47.040Z,25.40
2023-03-21T06:59:49.681Z,22.25
2023-03-21T07:00:52.964Z,15.65
2023-03-21T07:01:55.513Z,15.07
2023-03-21T07:02:57.998Z,13.85
2023-03-21T07:04:00.531Z,13.80
2023-03-21T07:05:03.443Z,13.75
2023-03-21T07:06:13.717Z,13.92
2023-03-21T07:07:16.169Z,14.33
2023-03-21T07:08:19.733Z,13.37
2023-03-21T07:09:24.721Z,13.52
2023-03-21T07:10:27.126Z,14.12
2023-03-21T07:11:29.542Z,14.45
2023-03-21T07:12:36.054Z,14.50
2023-03-21T07:13:38.494Z,15.22
2023-03-21T07:14:40.807Z,16.77
2023-03-21T07:15:43.275Z,17.17
2023-03-21T07:16:45.681Z,17.40
2023-03-21T07:17:48.160Z,16.58
2023-03-21T07:18:50.968Z,15.37
2023-03-21T07:19:53.326Z,14.68
2023-03-21T07:20:55.870Z,14.42
2023-03-21T07:21:58.265Z,13.57
2023-03-21T07:23:00.963Z,13.43
2023-03-21T07:24:03.328Z,13.22
2023-03-21T07:25:06.406Z,12.97
2023-03-21T07:26:09.019Z,13.03
2023-03-21T07:27:11.366Z,12.63
2023-03-21T07:28:13.938Z,12.25
2023-03-21T07:29:17.669Z,12.35
2023-03-21T07:30:20.157Z,12.35
2023-03-21T07:31:26.147Z,11.82
2023-03-21T07:32:30.123Z,12.35
2023-03-21T07:33:33.268Z,12.32
2023-03-21T07:34:35.591Z,12.52
2023-03-21T07:35:38.838Z,12.28
2023-03-21T07:36:41.371Z,12.40
2023-03-21T07:37:43.836Z,12.33
2023-03-21T07:38:46.445Z,11.83
2023-03-21T07:39:48.815Z,11.98
2023-03-21T07:40:51.186Z,11.92
2023-03-21T07:41:56.932Z,12.25
2023-03-21T07:42:59.354Z,11.72
2023-03-21T07:44:03.758Z,12.15
2023-03-21T07:45:08.226Z,11.78
2023-03-21T07:46:12.642Z,11.70
2023-03-21T07:47:15.141Z,11.23
2023-03-21T07:48:18.431Z,11.35
2023-03-21T07:49:21.294Z,10.77
2023-03-21T07:50:23.853Z,11.52
2023-03-21T07:51:26.278Z,11.05
2023-03-21T07:52:30.637Z,11.67
2023-03-21T07:53:33.264Z,11.40
2023-03-21T07:54:36.265Z,11.17
2023-03-21T07:55:39.289Z,12.03
2023-03-21T07:56:42.044Z,10.85
2023-03-21T07:57:45.046Z,10.88
2023-03-21T07:58:47.554Z,11.53
2023-03-21T07:59:49.924Z,11.10
2023-03-21T08:00:53.046Z,11.00
2023-03-21T08:01:55.458Z,11.08
2023-03-21T08:02:59.117Z,10.92
2023-03-21T08:04:01.642Z,10.98
2023-03-21T08:05:04.237Z,11.02
2023-03-21T08:06:07.042Z,10.80
2023-03-21T08:07:09.588Z,10.93
2023-03-21T08:08:11.979Z,11.13
2023-03-21T08:09:14.625Z,11.02
2023-03-21T08:10:18.152Z,11.37
2023-03-21T08:11:22.190Z,11.62
2023-03-21T08:12:25.082Z,11.22
2023-03-21T08:13:27.854Z,11.50
2023-03-21T08:14:30.369Z,11.40
2023-03-21T08:15:32.866Z,11.93
2023-03-21T08:16:35.506Z,11.17
2023-03-21T08:17:38.180Z,11.65
2023-03-21T08:18:40.583Z,11.72
2023-03-21T08:19:42.955Z,11.60
2023-03-21T08:20:45.315Z,12.40
2023-03-21T08:21:49.701Z,11.67
2023-03-21T08:22:52.132Z,12.03
2023-03-21T08:23:54.560Z,12.25
2023-03-21T08:24:56.945Z,11.95
2023-03-21T08:25:59.312Z,11.30
2023-03-21T08:27:01.867Z,11.60
2023-03-21T08:28:04.450Z,11.07
2023-03-21T08:29:06.878Z,11.98
2023-03-21T08:30:12.509Z,11.53
2023-03-21T08:31:15.477Z,11.00
2023-03-21T08:32:19.699Z,11.35
2023-03-21T08:33:22.036Z,11.32
2023-03-21T08:34:24.378Z,11.22
2023-03-21T08:35:26.864Z,11.37
2023-03-21T08:36:30.484Z,12.10
2023-03-21T08:37:33.952Z,11.18
2023-03-21T08:38:37.082Z,10.67
2023-03-21T08:39:39.864Z,10.67
2023-03-21T08:40:42.362Z,11.03
2023-03-21T08:41:44.852Z,11.23
2023-03-21T08:42:47.587Z,10.88
2023-03-21T08:43:50.060Z,10.78
2023-03-21T08:44:52.540Z,10.83
2023-03-21T08:45:56.048Z,11.33
2023-03-21T08:46:58.422Z,11.35
2023-03-21T08:48:00.899Z,11.25
2023-03-21T08:49:03.481Z,11.20
2023-03-21T08:50:08.002Z,11.35
2023-03-21T08:51:10.433Z,11.00
2023-03-21T08:52:12.882Z,10.88
2023-03-21T08:53:15.410Z,11.28
2023-03-21T08:54:21.861Z,11.73
2023-03-21T08:55:24.324Z,10.53
2023-03-21T08:56:26.666Z,11.17
2023-03-21T08:57:30.220Z,11.12
2023-03-21T08:58:32.582Z,10.52
2023-03-21T08:59:35.427Z,10.28
2023-03-21T09:00:38.063Z,10.37
2023-03-21T09:01:41.348Z,10.53
2023-03-21T09:02:52.094Z,10.32
2023-03-21T09:03:54.537Z,10.45
2023-03-21T09:04:59.167Z,9.85
2023-03-21T09:06:03.129Z,10.37
2023-03-21T09:07:06.280Z,9.22
2023-03-21T09:08:08.624Z,8.98
2023-03-21T09:09:11.557Z,8.90
2023-03-21T09:10:21.794Z,9.35
2023-03-21T09:11:24.824Z,8.83
2023-03-21T09:12:27.172Z,8.43
2023-03-21T09:13:29.509Z,9.08
2023-03-21T09:14:32.139Z,9.13
2023-03-21T09:15:35.431Z,9.33
2023-03-21T09:16:37.889Z,9.17
2023-03-21T09:17:44.613Z,8.70
2023-03-21T09:18:50.638Z,8.67
2023-03-21T09:19:53.571Z,8.93
2023-03-21T09:20:56.596Z,8.45
2023-03-21T09:21:59.787Z,8.07
2023-03-21T09:23:02.195Z,8.72
2023-03-21T09:24:05.729Z,9.02
2023-03-21T09:25:11.427Z,8.62
2023-03-21T09:26:14.289Z,7.88
2023-03-21T09:27:23.103Z,7.77
2023-03-21T09:28:25.644Z,7.42
2023-03-21T09:29:28.007Z,7.93
2023-03-21T09:30:31.488Z,8.38
2023-03-21T09:31:33.931Z,7.78
2023-03-21T09:32:37.005Z,8.17
2023-03-21T09:33:43.285Z,8.20
2023-03-21T09:34:45.936Z,7.77
2023-03-21T09:35:50.756Z,8.25
2023-03-21T09:36:56.665Z,8.07
2023-03-21T09:37:59.556Z,7.83
2023-03-21T09:39:04.168Z,8.08
2023-03-21T09:40:09.123Z,8.22
2023-03-21T09:41:27.318Z,8.40
2023-03-21T09:42:54.479Z,8.17
2023-03-21T09:43:59.896Z,8.15
2023-03-21T09:45:10.867Z,8.03
2023-03-21T09:46:22.214Z,7.18
2023-03-21T09:47:33.171Z,7.45
2023-03-21T09:48:57.037Z,7.23
2023-03-21T09:50:14.012Z,7.60
2023-03-21T09:51:19.408Z,7.80
2023-03-21T09:52:29.094Z,7.48
2023-03-21T09:53:40.311Z,7.20
2023-03-21T09:54:44.844Z,7.13
2023-03-21T09:55:47.615Z,7.20
2023-03-21T09:56:54.125Z,6.57
2023-03-21T09:58:20.529Z,6.08
2023-03-21T09:59:30.159Z,6.53
2023-03-21T10:00:45.759Z,7.37
2023-03-21T10:01:49.618Z,19.12
2023-03-21T10:02:57.297Z,30.75
2023-03-21T10:04:06.429Z,32.00
2023-03-21T10:05:33.061Z,19.72
2023-03-21T10:06:40.375Z,14.82
2023-03-21T10:07:48.865Z,9.88
2023-03-21T10:08:52.420Z,6.80
2023-03-21T10:09:55.339Z,6.97
2023-03-21T10:11:06.752Z,9.90
2023-03-21T10:12:30.569Z,9.18
2023-03-21T10:13:36.021Z,19.82
2023-03-21T10:14:42.903Z,17.30
2023-03-21T10:15:45.382Z,8.15
2023-03-21T10:16:50.136Z,5.95
2023-03-21T10:18:00.822Z,5.68
2023-03-21T10:19:08.229Z,7.07
2023-03-21T10:20:12.045Z,7.78
2023-03-21T10:21:43.399Z,8.02
2023-03-21T10:22:47.730Z,10.47
2023-03-21T10:23:52.680Z,10.25
2023-03-21T10:24:55.097Z,9.87
2023-03-21T10:26:02.206Z,10.67
2023-03-21T10:27:05.411Z,8.38
2023-03-21T10:28:15.486Z,9.43
2023-03-21T10:29:22.631Z,6.53
2023-03-21T10:30:28.783Z,5.58
2023-03-21T10:31:31.894Z,6.32
2023-03-21T10:32:36.067Z,6.43
2023-03-21T10:33:43.605Z,6.02
2023-03-21T10:34:50.058Z,5.88
2023-03-21T10:35:57.391Z,5.65
2023-03-21T10:37:01.714Z,6.35
2023-03-21T10:38:06.318Z,6.45
2023-03-21T10:39:21.848Z,7.32
2023-03-21T10:40:24.192Z,6.85
2023-03-21T10:41:26.531Z,5.65
2023-03-21T10:42:32.988Z,5.32
2023-03-21T10:43:37.980Z,5.02
2023-03-21T10:44:40.349Z,4.73
2023-03-21T10:45:46.475Z,4.03
2023-03-21T10:46:54.860Z,3.53
2023-03-21T10:47:58.405Z,3.97
2023-03-21T10:49:00.882Z,3.57
2023-03-21T10:50:09.268Z,3.83
2023-03-21T10:51:18.344Z,4.00
2023-03-21T10:52:23.168Z,4.52
2023-03-21T10:53:41.960Z,4.68
2023-03-21T10:54:45.754Z,4.85
2023-03-21T10:55:52.504Z,4.68
2023-03-21T10:57:14.234Z,4.18
2023-03-21T10:58:27.234Z,5.27
2023-03-21T10:59:40.564Z,5.62
2023-03-21T11:00:45.204Z,5.72
2023-03-21T11:01:51.730Z,5.38
2023-03-21T11:02:54.617Z,5.22
2023-03-21T11:04:01.138Z,4.57
2023-03-21T11:05:39.206Z,4.93
2023-03-21T11:06:44.846Z,4.57
2023-03-21T11:07:47.576Z,4.32
2023-03-21T11:09:16.880Z,4.15
2023-03-21T11:10:38.195Z,3.40
2023-03-21T11:11:49.322Z,4.32
2023-03-21T11:12:56.563Z,4.22
2023-03-21T11:14:01.960Z,4.40
2023-03-21T11:15:38.858Z,4.90
2023-03-21T11:16:44.129Z,4.33
2023-03-21T11:17:48.053Z,4.42
2023-03-21T11:18:52.935Z,4.60
2023-03-21T11:20:06.106Z,5.10
2023-03-21T11:21:17.449Z,4.25
2023-03-21T11:25:08.740Z,4.28
2023-03-21T11:26:17.713Z,4.43
2023-03-21T11:27:20.802Z,3.68
2023-03-21T11:28:25.887Z,3.00
2023-03-21T11:29:28.258Z,2.42
2023-03-21T11:30:30.685Z,2.65
2023-03-21T11:31:40.719Z,2.62
2023-03-21T11:32:43.091Z,2.83
2023-03-21T11:34:07.462Z,2.67
2023-03-21T11:35:19.873Z,2.63
2023-03-21T11:36:22.281Z,2.57
2023-03-21T11:37:27.913Z,2.70
2023-03-21T11:38:33.282Z,2.65
2023-03-21T11:39:39.971Z,2.43
2023-03-21T11:40:53.651Z,2.73
2023-03-21T11:41:56.069Z,3.95
2023-03-21T11:43:04.325Z,3.47
2023-03-21T11:44:06.855Z,2.73
2023-03-21T11:45:24.391Z,2.60
2023-03-21T11:46:29.920Z,2.88
2023-03-21T11:47:32.281Z,3.02
2023-03-21T11:48:41.183Z,2.98
2023-03-21T11:49:43.555Z,2.63
2023-03-21T11:50:47.899Z,2.53
2023-03-21T11:52:19.340Z,2.23
2023-03-21T11:53:39.544Z,2.23
2023-03-21T11:55:11.545Z,1.73
2023-03-21T11:56:46.977Z,2.00
2023-03-21T11:58:13.472Z,2.33
2023-03-21T11:59:24.305Z,2.42
2023-03-21T12:00:48.990Z,2.43
2023-03-21T12:02:00.526Z,2.32
2023-03-21T12:03:21.937Z,2.40
2023-03-21T12:04:52.280Z,2.33
2023-03-21T12:05:59.830Z,2.37
2023-03-21T12:07:17.468Z,2.32
2023-03-21T12:08:30.525Z,2.73
2023-03-21T12:09:42.190Z,3.10
2023-03-21T12:10:47.505Z,3.62
2023-03-21T12:11:58.424Z,3.68
2023-03-21T12:13:13.917Z,3.88
2023-03-21T12:14:28.904Z,2.67
2023-03-21T12:15:38.766Z,2.90
2023-03-21T12:17:10.487Z,3.78
2023-03-21T12:18:36.347Z,3.80
2023-03-21T12:19:44.603Z,3.30
2023-03-21T12:21:03.308Z,3.03
2023-03-21T12:22:31.591Z,2.53
2023-03-21T12:24:12.041Z,1.72
2023-03-21T12:25:19.597Z,2.30
2023-03-21T12:26:58.163Z,2.38
2023-03-21T12:28:15.259Z,2.17
2023-03-21T12:29:19.138Z,2.02
2023-03-21T12:30:23.482Z,2.15
2023-03-21T12:31:42.905Z,1.85
2023-03-21T12:32:50.713Z,2.45
2023-03-21T12:34:04.516Z,2.55
2023-03-21T12:35:18.637Z,2.08
2023-03-21T12:36:42.906Z,2.58
2023-03-21T12:38:05.970Z,3.08
2023-03-21T12:39:20.039Z,2.60
2023-03-21T12:40:52.522Z,2.47
2023-03-21T12:42:01.809Z,2.67
2023-03-21T12:43:23.097Z,2.95
2023-03-21T12:44:29.876Z,3.50
2023-03-21T12:45:47.220Z,3.90
2023-03-21T12:47:15.189Z,4.50
2023-03-21T12:48:25.070Z,3.87
2023-03-21T12:49:38.724Z,3.15
2023-03-21T12:50:42.872Z,3.90
2023-03-21T12:51:51.698Z,4.17
2023-03-21T12:53:17.042Z,3.43
2023-03-21T12:54:28.214Z,3.08
2023-03-21T12:55:34.769Z,2.78
2023-03-21T12:56:55.591Z,2.73
2023-03-21T12:58:22.792Z,2.78
2023-03-21T12:59:55.565Z,2.67
2023-03-21T13:01:03.667Z,3.07
2023-03-21T13:02:27.278Z,3.52
2023-03-21T13:03:40.538Z,3.32
2023-03-21T13:05:35.956Z,3.12
2023-03-21T13:06:39.617Z,2.88
2023-03-21T13:07:43.989Z,3.00
2023-03-21T13:09:15.336Z,3.65
2023-03-21T13:10:24.313Z,5.23
2023-03-21T13:11:29.697Z,9.25
2023-03-21T13:12:51.426Z,5.72
2023-03-21T13:14:00.963Z,3.38
2023-03-21T13:15:27.975Z,2.88
2023-03-21T13:16:31.322Z,2.32
2023-03-21T13:18:32.943Z,2.10
2023-03-21T13:19:52.038Z,2.67
2023-03-21T13:21:11.454Z,2.22
2023-03-21T13:22:32.469Z,2.18
2023-03-21T13:23:37.681Z,2.45
2023-03-21T13:24:59.277Z,2.88
2023-03-21T13:26:01.796Z,2.67
2023-03-21T13:27:42.598Z,2.83
2023-03-21T13:28:48.565Z,4.58
2023-03-21T13:29:53.504Z,3.48
2023-03-21T13:31:21.580Z,2.93
2023-03-21T13:32:39.283Z,2.65
2023-03-21T13:33:49.280Z,2.48
2023-03-21T13:35:06.841Z,2.63
2023-03-21T13:36:13.386Z,2.93
2023-03-21T13:37:26.224Z,3.45
2023-03-21T13:38:30.830Z,4.27
2023-03-21T13:39:44.142Z,4.32
2023-03-21T13:40:58.907Z,4.22
2023-03-21T13:42:06.624Z,4.65
2023-03-21T13:43:42.007Z,5.25
2023-03-21T13:44:50.626Z,4.90
2023-03-21T13:45:54.031Z,4.97
2023-03-21T13:47:07.323Z,4.93
2023-03-21T13:48:29.493Z,4.90
2023-03-21T13:49:38.159Z,4.27
2023-03-21T13:51:01.766Z,4.65
2023-03-21T13:52:09.905Z,4.80
2023-03-21T13:53:14.974Z,4.08
2023-03-21T13:54:30.149Z,4.65
2023-03-21T13:55:44.531Z,4.63
2023-03-21T13:56:47.073Z,4.42
2023-03-21T13:57:50.068Z,4.15
2023-03-21T13:59:02.382Z,4.18
2023-03-21T14:00:20.723Z,4.38
2023-03-21T14:01:34.217Z,4.80
2023-03-21T14:02:39.411Z,5.30
2023-03-21T14:03:45.049Z,4.88
2023-03-21T14:05:05.644Z,5.80
2023-03-21T14:06:10.936Z,5.67
2023-03-21T14:07:22.303Z,7.43
2023-03-21T14:08:37.496Z,9.77
2023-03-21T14:09:47.494Z,7.15
2023-03-21T14:10:55.612Z,7.55
2023-03-21T14:12:07.065Z,7.87
2023-03-21T14:13:16.448Z,7.28
2023-03-21T14:14:22.042Z,6.38
2023-03-21T14:15:27.732Z,6.33
2023-03-21T14:16:31.629Z,5.00
2023-03-21T14:17:35.252Z,5.52
2023-03-21T14:18:54.474Z,4.52
2023-03-21T14:20:14.591Z,4.43
2023-03-21T14:21:26.096Z,4.62
2023-03-21T14:22:31.416Z,4.93
2023-03-21T14:23:34.151Z,6.25
2023-03-21T14:24:36.480Z,6.45
2023-03-21T14:25:47.307Z,6.00
2023-03-21T14:26:52.484Z,5.90
2023-03-21T14:27:57.566Z,5.12
2023-03-21T14:29:03.803Z,4.25
2023-03-21T14:30:11.594Z,4.42
2023-03-21T14:31:16.776Z,4.32
2023-03-21T14:32:23.404Z,4.53
2023-03-21T14:33:33.496Z,4.32
2023-03-21T14:34:36.187Z,4.47
2023-03-21T14:35:42.147Z,4.48
2023-03-21T14:36:51.655Z,4.05
2023-03-21T14:38:19.095Z,3.47
2023-03-21T14:39:32.723Z,3.75
2023-03-21T14:40:36.094Z,3.37
2023-03-21T14:42:05.805Z,3.17
2023-03-21T14:43:11.196Z,3.63
2023-03-21T14:44:26.007Z,3.50
2023-03-21T14:45:30.763Z,3.70
2023-03-21T14:46:33.835Z,3.53
2023-03-21T14:47:37.796Z,3.33
2023-03-21T14:48:40.207Z,3.45
2023-03-21T14:49:42.900Z,3.17
2023-03-21T14:50:54.071Z,3.72
2023-03-21T14:52:00.376Z,3.87